Decoded Metar for DAAT (TAMANRASSET in ALGERIA) (IATA:TMR) | Meteo·Mobile Aviation Weather
aviador You're here:

DAAT Decoded Metar

TAMANRASSET in ALGERIA
Report Time2018-12-14 17:30:00
UTC Time2018-12-14 17:51:46
Flight Rules vfr VFR
Wind310° at 10 kt
W.Decomp.*RWY 26: 6.4 kt HW 7.7 kt RCW
RWY 02: 3.4 kt HW 9.4 kt LCW
W.Rank310° ranks 14
Current wind is above 310° avg. (8.9)
Visibility9999 m
Phenomena:N/A
Clouds:N/A
Expected CloudBase > 8,800 ft AGL from Temp-Dew spread
CeilingNone
Temp15°C (ISA +9)
Dew Point-7°C (21% RH)
AAT8.6°C
QNH1022 hPa
Density Alt5,318 ft
Elevation4,518 ft
Report Wrong Elevation
Raw Report
DAAT 141730Z 31010KT CAVOK 15/M07 Q1022=

Extra information for DAAT:More info

Metar Taf Metar & Taf Last 4 Metars F.Rules Stats Wind Profile Meteogram Temp Stats Airport Information Weather charts Add Link Nearby VenuesMetar ALERT Operation Metar Decoded Social comments